Time;durP1;ratioP1;P1;durP2;ratioP2;P2;SDS_P1;SDS_P2;PMS_P1;PMS_P2;Temp;Humidity;BMP_temperature;BMP_pressure;BME280_temperature;BME280_humidity;BME280_pressure;Samples;Min_cycle;Max_cycle;Signal;HPM_P1;HPM_P2
2022/04/23 00:00:21;;;;;;;44.50;15.80;;;;;;;24.09;67.94;98193.34;4912466;29;21175;-64
2022/04/23 00:03:10;;;;;;;44.20;17.02;;;;;;;24.08;68.76;98191.69;4911018;29;20052;-64
2022/04/23 00:05:52;;;;;;;44.25;16.05;;;;;;;24.04;68.80;98199.00;4910090;29;20231;-64
2022/04/23 00:08:41;;;;;;;39.30;15.75;;;;;;;24.03;70.00;98195.56;4911594;29;20144;-65
2022/04/23 00:11:23;;;;;;;38.80;15.88;;;;;;;24.00;69.71;98198.50;4910846;29;20623;-64
2022/04/23 00:14:12;;;;;;;30.25;15.98;;;;;;;23.98;70.35;98200.41;4909899;29;20643;-64
2022/04/23 00:16:54;;;;;;;32.92;15.75;;;;;;;23.94;70.30;98201.69;4911646;29;20079;-65
2022/04/23 00:19:46;;;;;;;35.60;15.98;;;;;;;23.93;68.63;98210.56;4911100;29;20139;-65
2022/04/23 00:22:29;;;;;;;43.17;16.65;;;;;;;23.89;68.49;98209.16;4911494;29;20111;-65
2022/04/23 00:25:18;;;;;;;36.08;16.30;;;;;;;23.86;68.56;98209.47;4909219;29;20047;-64
2022/04/23 00:28:14;;;;;;;49.92;17.27;;;;;;;23.85;66.24;98217.50;4911556;29;20063;-66
2022/04/23 00:30:52;;;;;;;39.80;17.10;;;;;;;23.81;66.79;98216.94;4911165;29;20064;-64
2022/04/23 00:33:41;;;;;;;52.30;21.08;;;;;;;23.81;65.67;98213.47;4911334;29;20636;-64
2022/04/23 00:36:30;;;;;;;50.08;21.58;;;;;;;23.81;68.68;98216.94;4910848;29;20064;-65
2022/04/23 00:39:12;;;;;;;45.28;21.55;;;;;;;23.86;70.38;98225.25;4909999;29;20048;-66
2022/04/23 00:42:08;;;;;;;55.30;24.48;;;;;;;23.82;66.85;98223.84;4911836;29;20124;-65
2022/04/23 00:44:50;;;;;;;52.45;24.42;;;;;;;23.83;69.56;98235.22;4911357;29;20151;-66
2022/04/23 00:47:39;;;;;;;53.65;26.25;;;;;;;23.82;69.01;98229.13;4910820;29;20058;-64
2022/04/23 00:50:22;;;;;;;55.85;27.63;;;;;;;23.84;69.49;98235.06;4910470;29;20059;-65
2022/04/23 00:53:11;;;;;;;59.08;27.55;;;;;;;23.86;71.00;98245.47;4901902;29;20132;-64
2022/04/23 00:56:00;;;;;;;64.57;29.90;;;;;;;23.86;70.11;98235.78;4911060;29;20476;-65
2022/04/23 00:58:57;;;;;;;58.83;30.23;;;;;;;23.88;68.13;98239.06;4897254;29;20108;-65
2022/04/23 01:01:32;;;;;;;70.55;32.63;;;;;;;23.88;67.23;98243.50;4913717;29;20067;-65
2022/04/23 01:04:30;;;;;;;56.90;27.23;;;;;;;23.90;64.99;98246.84;4910741;29;20052;-65
2022/04/23 01:07:06;;;;;;;46.45;21.65;;;;;;;23.90;61.40;98247.66;4923072;29;20040;-64
2022/04/23 01:09:55;;;;;;;44.28;21.58;;;;;;;23.97;63.57;98250.56;4930633;29;20047;-65
2022/04/23 01:12:37;;;;;;;37.88;18.30;;;;;;;23.97;61.99;98259.28;4917809;29;20051;-65
2022/04/23 01:15:33;;;;;;;39.78;18.42;;;;;;;23.98;60.41;98260.94;4925206;29;20055;-65
2022/04/23 01:18:09;;;;;;;45.13;20.55;;;;;;;24.06;59.46;98262.06;4928322;29;20413;-65
2022/04/23 01:21:04;;;;;;;41.65;19.58;;;;;;;24.10;61.96;98263.44;4929510;29;20052;-65
2022/04/23 01:23:47;;;;;;;42.15;20.05;;;;;;;24.15;62.25;98266.47;4929550;29;20487;-64
2022/04/23 01:26:36;;;;;;;44.70;20.75;;;;;;;24.18;62.23;98274.09;4929915;29;20052;-65
2022/04/23 01:29:25;;;;;;;49.00;22.58;;;;;;;24.25;62.64;98272.59;4900774;29;20144;-66
2022/04/23 01:32:14;;;;;;;65.55;24.58;;;;;;;24.27;59.62;98279.34;4909883;29;20131;-64
2022/04/23 01:34:56;;;;;;;58.00;26.92;;;;;;;24.33;59.96;98280.59;4909904;29;20115;-67
2022/04/23 01:37:45;;;;;;;62.08;29.70;;;;;;;24.37;58.81;98282.81;4908903;29;20143;-66
2022/04/23 01:40:34;;;;;;;63.35;28.90;;;;;;;24.49;63.01;98285.28;4928730;29;20496;-66
2022/04/23 01:43:23;;;;;;;57.83;28.05;;;;;;;24.53;61.44;98291.91;4911449;29;20047;-66
2022/04/23 01:46:12;;;;;;;56.65;26.75;;;;;;;24.62;62.75;98291.88;4929074;29;20075;-66
2022/04/23 01:48:54;;;;;;;54.90;24.73;;;;;;;24.66;57.20;98295.06;4928849;29;20138;-66
2022/04/23 01:51:43;;;;;;;49.65;24.42;;;;;;;24.78;60.44;98297.38;4929207;29;20044;-66
2022/04/23 01:54:32;;;;;;;47.40;22.88;;;;;;;24.93;62.34;98302.19;4928146;29;20055;-66
2022/04/23 01:57:21;;;;;;;73.80;26.45;;;;;;;25.00;61.68;98298.00;4934391;28;20067;-66
2022/04/23 02:00:11;;;;;;;66.25;28.52;;;;;;;25.12;60.27;98305.59;4946687;29;20134;-67
2022/04/23 02:02:59;;;;;;;58.45;28.77;;;;;;;25.16;58.50;98311.38;4948221;29;20071;-66
2022/04/23 02:05:41;;;;;;;64.97;30.55;;;;;;;25.22;57.45;98305.53;4929849;29;20052;-67
2022/04/23 02:08:30;;;;;;;69.72;31.83;;;;;;;25.28;58.38;98315.50;4946790;29;20074;-66
2022/04/23 02:11:19;;;;;;;69.55;32.38;;;;;;;25.52;60.03;98312.28;4946244;29;20051;-66
2022/04/23 02:14:08;;;;;;;67.45;30.58;;;;;;;25.69;56.61;98314.16;4946388;29;20471;-65
2022/04/23 02:16:57;;;;;;;91.65;38.58;;;;;;;25.88;53.35;98331.63;4948629;29;20051;-66
2022/04/23 02:19:46;;;;;;;78.70;33.42;;;;;;;26.39;54.27;98325.66;4948039;29;20059;-65
2022/04/23 02:22:28;;;;;;;79.10;34.22;;;;;;;26.87;58.46;98327.78;4944905;28;20134;-65
2022/04/23 02:25:19;;;;;;;71.13;31.98;;;;;;;27.28;58.76;98333.28;4947474;29;20055;-65
2022/04/23 02:28:01;;;;;;;84.85;38.40;;;;;;;27.43;50.51;98329.84;4948230;29;20534;-67
2022/04/23 02:30:50;;;;;;;90.95;37.38;;;;;;;27.91;57.92;98328.34;4946686;29;20078;-65
2022/04/23 02:33:32;;;;;;;84.47;38.83;;;;;;;27.84;51.89;98337.09;4948263;29;20387;-65
2022/04/23 02:36:21;;;;;;;78.88;35.95;;;;;;;28.17;49.79;98334.34;4948211;29;20055;-65
2022/04/23 02:39:03;;;;;;;73.68;35.08;;;;;;;28.76;49.90;98337.59;4948566;28;20154;-65
2022/04/23 02:41:52;;;;;;;83.43;36.88;;;;;;;28.50;49.31;98342.25;4929001;29;20643;-65
2022/04/23 02:44:34;;;;;;;82.15;33.33;;;;;;;28.71;46.66;98336.44;4940415;28;20043;-65
2022/04/23 02:47:23;;;;;;;71.95;29.60;;;;;;;28.61;46.96;98341.09;4963277;28;20051;-65
2022/04/23 02:50:13;;;;;;;61.15;28.35;;;;;;;28.75;47.04;98345.69;4927390;29;20058;-66
2022/04/23 02:52:48;;;;;;;68.03;27.65;;;;;;;28.57;47.34;98359.16;4947679;29;20105;-65
2022/04/23 02:55:39;;;;;;;54.60;25.33;;;;;;;29.02;47.01;98357.78;4947234;29;20059;-66
2022/04/23 02:58:21;;;;;;;58.67;24.60;;;;;;;29.29;50.04;98365.31;4948873;28;20054;-65
2022/04/23 03:01:10;;;;;;;48.33;23.15;;;;;;;29.33;46.39;98357.81;4956380;28;20078;-65
2022/04/23 03:03:59;;;;;;;59.30;22.25;;;;;;;29.23;44.58;98366.81;4962770;28;20074;-66
2022/04/23 03:06:48;;;;;;;51.35;23.15;;;;;;;28.98;45.45;98367.03;4945582;29;20352;-65
2022/04/23 03:09:30;;;;;;;56.55;23.38;;;;;;;29.07;46.18;98374.81;4945589;29;20055;-65
2022/04/23 03:12:19;;;;;;;44.10;20.90;;;;;;;29.53;47.36;98385.66;4927719;29;20106;-65
2022/04/23 03:15:01;;;;;;;48.67;20.92;;;;;;;29.65;47.74;98385.06;4946009;29;20047;-66
2022/04/23 03:17:51;;;;;;;59.30;21.63;;;;;;;29.93;47.74;98387.25;4945784;29;20055;-67
2022/04/23 03:20:43;;;;;;;59.42;22.15;;;;;;;29.88;45.16;98401.03;4928101;29;21529;-66
2022/04/23 03:23:27;;;;;;;46.55;21.30;;;;;;;29.96;43.20;98403.69;4925469;29;20111;-66
2022/04/23 03:26:16;;;;;;;58.33;25.08;;;;;;;29.87;43.05;98407.34;4945763;29;20047;-66
2022/04/23 03:29:05;;;;;;;60.42;25.08;;;;;;;29.69;43.33;98404.16;4945184;29;20047;-66
2022/04/23 03:31:50;;;;;;;59.10;26.38;;;;;;;29.81;43.00;98410.72;4944240;29;20046;-66
2022/04/23 03:34:39;;;;;;;65.25;26.60;;;;;;;30.39;42.80;98404.06;4940134;28;20047;-66
2022/04/23 03:37:28;;;;;;;55.50;26.30;;;;;;;30.02;42.93;98405.63;4925707;29;20083;-67
2022/04/23 03:40:18;;;;;;;57.42;23.30;;;;;;;30.49;42.46;98411.78;4946521;28;20051;-67
2022/04/23 03:43:00;;;;;;;49.55;22.05;;;;;;;30.49;41.63;98404.63;4947038;29;20055;-65
2022/04/23 03:45:49;;;;;;;48.90;20.33;;;;;;;31.02;42.87;98416.97;4947333;29;20063;-67
2022/04/23 03:48:31;;;;;;;49.78;20.50;;;;;;;31.27;42.94;98412.25;4947424;29;20052;-67
2022/04/23 03:51:20;;;;;;;51.25;21.98;;;;;;;30.93;39.23;98418.06;4947282;29;20075;-67
2022/04/23 03:54:02;;;;;;;57.63;23.88;;;;;;;31.11;44.28;98426.56;4947692;29;20043;-67
2022/04/23 03:56:52;;;;;;;61.22;29.50;;;;;;;31.10;42.92;98418.75;4948551;28;20447;-67
2022/04/23 03:59:42;;;;;;;70.25;29.77;;;;;;;31.40;42.63;98425.72;4946925;28;20051;-67
2022/04/23 04:02:23;;;;;;;69.85;31.17;;;;;;;31.72;42.52;98421.03;4947524;28;20367;-68
2022/04/23 04:05:12;;;;;;;67.53;31.88;;;;;;;31.70;43.17;98429.22;4956074;28;20039;-67
2022/04/23 04:08:01;;;;;;;77.47;33.00;;;;;;;31.91;41.70;98423.94;4947635;29;20070;-65
2022/04/23 04:10:50;;;;;;;75.35;33.72;;;;;;;32.13;40.62;98429.28;4940507;29;20074;-66
2022/04/23 04:13:32;;;;;;;70.65;33.97;;;;;;;32.22;42.07;98426.34;4927725;29;20119;-68
2022/04/23 04:16:22;;;;;;;66.82;28.88;;;;;;;32.29;41.99;98437.91;4908663;29;20063;-66
2022/04/23 04:19:04;;;;;;;54.47;24.98;;;;;;;32.37;40.44;98438.81;4927547;29;20163;-67
2022/04/23 04:22:03;;;;;;;49.83;23.27;;;;;;;32.64;43.44;98435.38;4927942;29;20372;-67
2022/04/23 04:24:38;;;;;;;48.63;19.52;;;;;;;32.57;37.76;98434.47;4939824;29;20122;-67
2022/04/23 04:27:27;;;;;;;45.13;19.05;;;;;;;32.75;38.51;98431.38;4946907;29;20059;-66
2022/04/23 04:30:17;;;;;;;52.47;21.48;;;;;;;33.21;40.99;98426.38;4936718;28;20066;-65
2022/04/23 04:33:12;;;;;;;55.40;22.85;;;;;;;33.38;43.42;98423.19;4935341;28;20047;-65
2022/04/23 04:35:47;;;;;;;45.60;20.30;;;;;;;33.61;38.17;98425.56;4955278;28;20118;-65
2022/04/23 04:38:42;;;;;;;50.03;17.45;;;;;;;33.54;41.98;98422.03;4956196;28;20046;-65
2022/04/23 04:41:17;;;;;;;47.10;20.40;;;;;;;33.42;38.78;98421.78;4954282;28;20050;-65
2022/04/23 04:44:06;;;;;;;53.00;25.13;;;;;;;33.95;41.46;98424.69;4954536;28;20126;-65
2022/04/23 04:46:48;;;;;;;64.38;27.40;;;;;;;33.81;41.38;98425.69;4956192;28;20066;-64
2022/04/23 04:49:39;;;;;;;44.60;23.10;;;;;;;34.12;42.25;98435.84;4950102;29;20138;-65
2022/04/23 04:52:20;;;;;;;48.05;14.77;;;;;;;34.01;41.88;98429.22;4949673;29;20059;-65
2022/04/23 04:55:10;;;;;;;39.88;14.68;;;;;;;34.23;39.02;98437.97;4948243;28;20062;-64
2022/04/23 04:57:52;;;;;;;28.48;10.65;;;;;;;33.73;39.21;98433.88;4941623;28;20130;-65
2022/04/23 05:00:41;;;;;;;25.05;10.30;;;;;;;34.19;38.68;98436.69;4935111;29;20543;-65
2022/04/23 05:03:25;;;;;;;27.98;10.52;;;;;;;33.90;35.64;98435.19;4968866;28;20141;-63
2022/04/23 05:06:14;;;;;;;27.30;10.63;;;;;;;34.31;40.55;98439.63;4968887;28;20500;-66
2022/04/23 05:09:03;;;;;;;29.90;11.48;;;;;;;34.73;41.11;98441.94;4949283;29;20059;-66
2022/04/23 05:11:52;;;;;;;25.52;12.65;;;;;;;34.46;41.25;98434.94;4949804;29;20475;-65
2022/04/23 05:14:41;;;;;;;24.75;9.00;;;;;;;34.88;40.83;98436.41;4949270;29;20059;-69
2022/04/23 05:17:31;;;;;;;20.73;7.38;;;;;;;34.95;36.47;98439.06;4922757;29;20729;-65
2022/04/23 05:20:13;;;;;;;21.05;7.30;;;;;;;34.65;35.70;98435.94;4929827;29;20055;-64
2022/04/23 05:23:02;;;;;;;22.10;7.65;;;;;;;34.91;40.97;98431.44;4939106;28;20138;-65
2022/04/23 05:25:44;;;;;;;20.35;7.82;;;;;;;34.45;35.26;98427.91;4949859;29;20047;-65
2022/04/23 05:28:34;;;;;;;15.82;6.28;;;;;;;35.00;40.55;98432.06;4929902;29;20054;-65
2022/04/23 05:31:16;;;;;;;15.30;6.22;;;;;;;34.53;38.14;98436.56;4948685;29;20074;-66
2022/04/23 05:34:11;;;;;;;28.52;7.22;;;;;;;34.72;35.18;98437.59;4932530;29;20055;-67
2022/04/23 05:36:46;;;;;;;14.60;6.40;;;;;;;35.27;37.05;98441.75;4947698;29;20047;-68
2022/04/23 05:39:35;;;;;;;25.80;6.18;;;;;;;35.38;36.92;98444.78;4946985;28;20110;-67
2022/04/23 05:42:24;;;;;;;13.80;4.20;;;;;;;35.08;35.73;98439.88;4948891;29;20059;-67
2022/04/23 05:45:06;;;;;;;24.70;5.97;;;;;;;35.45;37.18;98442.91;4930682;29;20079;-67
2022/04/23 05:47:55;;;;;;;24.92;6.65;;;;;;;35.54;37.58;98436.28;4929101;29;20071;-67
2022/04/23 05:50:44;;;;;;;21.08;6.70;;;;;;;35.46;39.64;98433.84;4923294;29;20145;-67
2022/04/23 05:53:33;;;;;;;20.95;7.43;;;;;;;35.38;35.74;98447.47;4911124;29;20048;-67
2022/04/23 05:56:22;;;;;;;20.08;7.82;;;;;;;34.85;44.91;98426.94;4944841;28;20047;-67
2022/04/23 05:59:04;;;;;;;34.05;8.57;;;;;;;34.92;39.03;98427.75;4947654;28;20059;-67
2022/04/23 06:01:53;;;;;;;32.80;8.07;;;;;;;35.08;42.75;98425.66;4963228;28;20058;-66
2022/04/23 06:04:35;;;;;;;25.13;7.95;;;;;;;34.72;37.15;98416.16;4968316;28;20113;-67
2022/04/23 06:07:24;;;;;;;33.33;7.57;;;;;;;35.05;45.51;98418.84;4954228;28;20055;-67
2022/04/23 06:10:06;;;;;;;26.98;7.45;;;;;;;34.98;48.41;98417.22;4941847;29;20097;-68
2022/04/23 06:12:55;;;;;;;23.60;6.00;;;;;;;34.76;39.18;98424.66;4946621;29;20085;-68
2022/04/23 06:15:44;;;;;;;22.92;5.55;;;;;;;34.77;40.06;98418.28;4929488;29;20051;-68
2022/04/23 06:18:27;;;;;;;25.60;7.25;;;;;;;34.84;38.64;98419.09;4929112;29;20059;-66
2022/04/23 06:21:17;;;;;;;35.03;8.23;;;;;;;35.02;43.19;98415.78;4942554;29;20141;-69
2022/04/23 06:23:59;;;;;;;26.48;7.50;;;;;;;34.86;36.80;98407.16;4948780;29;20057;-66
2022/04/23 06:26:48;;;;;;;27.70;6.75;;;;;;;34.60;33.38;98417.00;4946726;29;20083;-69
2022/04/23 06:29:30;;;;;;;25.05;6.47;;;;;;;34.54;36.75;98408.78;4945860;29;20383;-67
2022/04/23 06:32:19;;;;;;;21.98;6.47;;;;;;;34.58;37.86;98400.31;4946220;29;20054;-68
2022/04/23 06:35:01;;;;;;;30.08;6.45;;;;;;;34.80;36.20;98407.97;4946059;29;20490;-69
2022/04/23 06:37:50;;;;;;;23.38;5.60;;;;;;;34.92;38.01;98400.13;4929315;29;20047;-69
2022/04/23 06:40:32;;;;;;;21.15;6.15;;;;;;;34.92;38.49;98403.63;4948618;28;20047;-70
2022/04/23 06:43:21;;;;;;;21.02;7.18;;;;;;;34.89;40.07;98400.53;4942426;29;20051;-69
2022/04/23 06:46:10;;;;;;;36.38;8.05;;;;;;;34.47;34.46;98399.94;4946854;29;20051;-69
2022/04/23 06:48:52;;;;;;;28.30;7.13;;;;;;;34.43;36.35;98396.00;4946145;29;20534;-69
2022/04/23 06:51:47;;;;;;;48.42;11.95;;;;;;;34.70;34.34;98396.84;4918529;29;20074;-68
2022/04/23 06:54:23;;;;;;;28.00;8.20;;;;;;;34.85;35.94;98396.66;4912199;29;20103;-68
2022/04/23 06:57:18;;;;;;;30.80;8.73;;;;;;;34.89;37.52;98392.50;4948672;28;20056;-68
2022/04/23 07:00:09;;;;;;;31.08;9.25;;;;;;;34.67;37.80;98397.25;4939256;28;20134;-68
2022/04/23 07:02:58;;;;;;;35.85;9.80;;;;;;;34.65;35.77;98382.41;4942502;29;20416;-69
2022/04/23 07:05:40;;;;;;;26.63;9.25;;;;;;;34.74;40.59;98375.84;4947195;29;20487;-73
2022/04/23 07:08:29;;;;;;;29.73;8.77;;;;;;;34.41;34.17;98376.66;4920205;29;20051;-68
2022/04/23 07:11:11;;;;;;;25.27;8.02;;;;;;;34.51;34.63;98377.06;4927859;29;20082;-69
2022/04/23 07:14:00;;;;;;;25.02;7.97;;;;;;;34.63;35.43;98376.47;4947309;28;20055;-69
2022/04/23 07:16:42;;;;;;;43.60;10.90;;;;;;;34.72;35.73;98370.66;4947219;29;20161;-68
2022/04/23 07:19:32;;;;;;;37.95;9.15;;;;;;;34.68;37.65;98366.78;4946735;28;20526;-69
2022/04/23 07:22:14;;;;;;;22.75;7.03;;;;;;;34.73;33.13;98375.03;4946616;29;20066;-68
2022/04/23 07:25:03;;;;;;;34.35;7.22;;;;;;;34.75;40.66;98356.06;4937453;28;20055;-67
2022/04/23 07:27:52;;;;;;;20.00;6.57;;;;;;;34.67;34.47;98364.28;4930107;29;20043;-68
2022/04/23 07:30:35;;;;;;;30.08;7.68;;;;;;;34.69;36.27;98348.84;4947568;28;20126;-69
2022/04/23 07:39:32;;;;;;;26.90;8.35;;;;;;;34.39;34.21;98343.13;4945539;28;20051;-69
2022/04/23 07:42:16;;;;;;;28.42;8.13;;;;;;;34.34;31.35;98342.91;4945876;29;20157;-69
2022/04/23 07:45:05;;;;;;;33.10;8.30;;;;;;;34.54;33.75;98341.06;4945669;29;20127;-69
2022/04/23 07:47:54;;;;;;;25.95;9.32;;;;;;;34.46;32.68;98341.25;4945136;28;20138;-69
2022/04/23 07:50:37;;;;;;;36.53;8.20;;;;;;;34.62;33.91;98338.16;4945481;28;20475;-67
2022/04/23 07:53:26;;;;;;;29.17;9.95;;;;;;;34.58;34.67;98328.06;4945609;29;20122;-67
2022/04/23 07:56:16;;;;;;;36.45;9.13;;;;;;;34.67;36.44;98332.16;4928635;29;20070;-67
2022/04/23 07:58:58;;;;;;;38.42;9.90;;;;;;;34.60;36.37;98323.31;4939031;29;20071;-69
2022/04/23 08:01:47;;;;;;;23.88;8.98;;;;;;;34.59;38.53;98324.34;4934227;29;20116;-68
2022/04/23 08:04:29;;;;;;;32.22;9.27;;;;;;;34.41;34.23;98319.63;4933144;29;20084;-68
2022/04/23 08:07:18;;;;;;;39.03;9.35;;;;;;;34.22;32.02;98312.41;4940882;28;20600;-68
2022/04/23 08:10:02;;;;;;;28.73;8.60;;;;;;;34.36;35.62;98309.56;4941467;29;20646;-69
2022/04/23 08:12:58;;;;;;;26.30;8.13;;;;;;;34.38;35.73;98301.34;4932119;29;20047;-68
2022/04/23 08:15:33;;;;;;;24.20;8.45;;;;;;;34.31;36.79;98301.34;4928645;29;20161;-68
2022/04/23 08:18:29;;;;;;;26.58;7.90;;;;;;;34.24;38.21;98295.19;4913900;29;20059;-68
2022/04/23 08:21:04;;;;;;;28.80;7.45;;;;;;;34.14;31.50;98292.88;4933402;29;20075;-68
2022/04/23 08:23:53;;;;;;;27.35;7.47;;;;;;;34.12;36.14;98286.91;4934455;29;20139;-70
2022/04/23 08:26:35;;;;;;;41.20;9.05;;;;;;;34.14;33.82;98278.69;4938069;29;20058;-68
2022/04/23 08:32:31;;;;;;;34.58;7.18;;;;;;;34.16;30.71;98280.09;4939537;29;20127;-67
2022/04/23 08:35:13;;;;;;;25.73;6.32;;;;;;;34.25;34.67;98269.22;4938269;29;20047;-67
2022/04/23 08:38:03;;;;;;;26.80;7.07;;;;;;;34.15;33.02;98258.94;4937909;29;20056;-67
2022/04/23 08:40:45;;;;;;;31.65;7.22;;;;;;;34.18;33.12;98263.84;4939618;29;20051;-68
2022/04/23 08:43:34;;;;;;;34.25;8.30;;;;;;;34.19;36.14;98260.16;4931184;29;20119;-68
2022/04/23 08:46:17;;;;;;;19.65;7.55;;;;;;;34.19;33.35;98258.28;4936402;29;20114;-68
2022/04/23 08:49:23;;;;;;;22.23;7.82;;;;;;;34.21;35.23;98260.78;4930836;29;20707;-68
2022/04/23 08:52:36;;;;;;;23.98;6.95;;;;;;;34.21;33.60;98262.63;4931721;29;20051;-70
2022/04/23 08:55:14;;;;;;;23.02;6.90;;;;;;;34.17;35.34;98251.50;4921124;29;20539;-70
2022/04/23 08:58:11;;;;;;;28.75;7.60;;;;;;;34.14;36.19;98246.59;4940126;29;20797;-71
2022/04/23 09:00:45;;;;;;;38.00;7.43;;;;;;;34.12;32.53;98246.78;4939255;29;20055;-70
2022/04/23 09:03:34;;;;;;;41.22;8.30;;;;;;;34.07;34.17;98235.06;4940593;29;20059;-69
2022/04/23 09:06:16;;;;;;;23.52;7.75;;;;;;;33.93;31.61;98233.41;4931335;29;20439;-69
2022/04/23 09:09:10;;;;;;;21.30;6.95;;;;;;;33.92;32.10;98221.91;4931653;29;20477;-71
2022/04/23 09:11:56;;;;;;;25.35;6.70;;;;;;;33.93;35.97;98220.03;4932421;29;20067;-70
2022/04/23 09:14:52;;;;;;;27.83;7.57;;;;;;;33.87;33.85;98218.19;4930809;29;20051;-68
2022/04/23 09:23:50;;;;;;;27.55;6.70;;;;;;;33.94;34.95;98203.78;4931418;29;20048;-65
2022/04/23 09:26:42;;;;;;;33.85;7.55;;;;;;;33.93;33.47;98201.31;4932019;29;20055;-69
2022/04/23 09:29:24;;;;;;;27.30;7.95;;;;;;;33.95;32.69;98202.78;4931770;29;20055;-68
2022/04/23 09:32:15;;;;;;;25.63;7.45;;;;;;;33.97;32.65;98206.06;4934522;29;20075;-66
2022/04/23 09:35:11;;;;;;;22.60;7.18;;;;;;;33.89;33.67;98194.75;4931948;29;20613;-65
2022/04/23 09:38:12;;;;;;;31.50;7.65;;;;;;;33.94;32.76;98193.09;4929683;29;20118;-68
2022/04/23 09:41:15;;;;;;;21.58;7.40;;;;;;;33.92;32.30;98183.66;4925658;29;20170;-67
2022/04/23 09:44:13;;;;;;;33.80;7.80;;;;;;;33.81;31.54;98179.75;4928623;29;20052;-65
2022/04/23 09:47:08;;;;;;;22.90;7.13;;;;;;;33.76;32.82;98176.88;4929084;29;20059;-68
2022/04/23 09:49:54;;;;;;;32.83;7.57;;;;;;;33.80;32.81;98178.91;4928248;29;20056;-67
2022/04/23 09:52:43;;;;;;;36.92;7.97;;;;;;;33.75;35.94;98168.03;4928495;29;20162;-64
2022/04/23 09:55:41;;;;;;;32.05;7.50;;;;;;;33.80;33.31;98160.22;4933143;29;20052;-66
2022/04/23 09:58:31;;;;;;;25.67;6.88;;;;;;;33.73;33.28;98164.75;4939790;29;20051;-67
2022/04/23 10:01:21;;;;;;;31.63;7.55;;;;;;;33.73;33.49;98162.06;4947364;28;20741;-65
2022/04/23 10:04:12;;;;;;;27.85;7.05;;;;;;;33.68;35.74;98155.69;4948699;29;20744;-67
2022/04/23 10:07:01;;;;;;;22.73;6.60;;;;;;;33.65;32.79;98151.56;4946907;29;20070;-67
2022/04/23 10:09:45;;;;;;;19.55;6.72;;;;;;;33.53;32.44;98153.19;4948467;28;20123;-66
2022/04/23 10:12:39;;;;;;;27.52;7.60;;;;;;;33.42;33.92;98145.78;4947949;28;20375;-66
2022/04/23 10:15:21;;;;;;;26.55;6.85;;;;;;;33.42;35.67;98145.78;4948432;29;20051;-66
2022/04/23 10:18:14;;;;;;;24.05;6.63;;;;;;;33.35;32.77;98150.31;4948182;28;20059;-66
2022/04/23 10:21:02;;;;;;;22.52;6.72;;;;;;;33.29;32.74;98148.44;4929437;29;20090;-67
2022/04/23 10:24:18;;;;;;;20.75;6.30;;;;;;;33.27;31.84;98139.81;4932535;29;20058;-65
2022/04/23 10:27:09;;;;;;;16.70;6.50;;;;;;;33.30;31.35;98144.75;4947111;29;20498;-64
2022/04/23 10:30:03;;;;;;;18.67;5.20;;;;;;;33.24;35.24;98137.53;4948047;29;20059;-66
2022/04/23 10:32:45;;;;;;;21.23;5.75;;;;;;;33.20;33.73;98137.13;4948175;29;20096;-68
2022/04/23 10:35:37;;;;;;;22.27;4.97;;;;;;;33.25;33.56;98133.84;4948236;29;20050;-67
2022/04/23 10:38:19;;;;;;;24.30;5.57;;;;;;;33.17;34.92;98131.34;4948254;29;20054;-66
2022/04/23 10:41:08;;;;;;;17.85;5.93;;;;;;;33.15;33.03;98128.88;4946067;28;20102;-69
2022/04/23 10:44:04;;;;;;;27.70;6.00;;;;;;;33.08;34.32;98129.88;4933306;29;20162;-66
2022/04/23 10:46:56;;;;;;;16.73;5.23;;;;;;;33.09;30.41;98124.34;4604262;28;9999946;-65
2022/04/23 10:49:38;;;;;;;17.70;5.03;;;;;;;33.15;30.96;98122.72;4943918;29;20277;-67
2022/04/23 10:52:45;;;;;;;17.52;5.03;;;;;;;33.15;30.15;98126.19;4945256;29;20478;-65
2022/04/23 10:55:48;;;;;;;23.25;5.38;;;;;;;33.19;30.44;98115.94;4946679;29;20051;-66
2022/04/23 10:58:40;;;;;;;26.90;5.22;;;;;;;33.17;31.04;98126.81;4920023;29;20052;-67
2022/04/23 11:01:30;;;;;;;22.42;4.50;;;;;;;33.10;33.43;98119.84;4925622;29;20143;-65
2022/04/23 11:04:12;;;;;;;24.40;5.47;;;;;;;33.04;32.93;98122.31;4929063;29;20051;-66
2022/04/23 11:13:23;;;;;;;20.70;5.32;;;;;;;32.95;35.68;98115.50;4928457;29;20047;-65
2022/04/23 11:16:18;;;;;;;30.00;6.25;;;;;;;32.81;33.75;98113.81;4928883;29;20051;-67
2022/04/23 11:19:10;;;;;;;28.60;7.05;;;;;;;32.82;34.35;98107.44;4927733;29;20491;-67
2022/04/23 11:21:53;;;;;;;23.70;6.15;;;;;;;32.86;30.98;98114.03;4926889;29;20413;-67
2022/04/23 11:24:44;;;;;;;23.17;6.18;;;;;;;32.77;34.76;98106.41;4928012;29;20051;-66
2022/04/23 11:27:37;;;;;;;21.23;6.25;;;;;;;32.68;34.63;98113.75;4927156;29;20546;-66
2022/04/23 11:30:29;;;;;;;20.35;6.20;;;;;;;32.54;37.64;98104.06;4928088;29;20067;-66
2022/04/23 11:33:18;;;;;;;25.65;5.40;;;;;;;32.43;37.09;98099.28;4928378;29;20135;-66
2022/04/23 11:36:00;;;;;;;29.15;4.97;;;;;;;32.39;34.19;98101.53;4914377;29;20051;-65
2022/04/23 11:38:49;;;;;;;20.02;5.40;;;;;;;32.36;35.06;98098.44;4928233;29;20054;-66
2022/04/23 11:41:51;;;;;;;20.50;4.63;;;;;;;32.27;34.39;98097.78;4926815;29;20067;-66
2022/04/23 11:44:46;;;;;;;22.20;5.85;;;;;;;32.23;33.46;98108.03;4926575;29;20051;-67
2022/04/23 11:47:30;;;;;;;25.40;5.90;;;;;;;32.24;35.86;98104.34;4926928;29;20051;-66
2022/04/23 11:50:26;;;;;;;21.55;5.65;;;;;;;32.12;36.56;98094.38;4929027;29;20757;-65
2022/04/23 11:53:09;;;;;;;22.40;5.53;;;;;;;31.98;37.52;98109.50;4928138;29;20048;-65
2022/04/23 11:55:58;;;;;;;28.73;5.20;;;;;;;31.86;36.46;98095.03;4918450;29;20108;-65
2022/04/23 11:58:40;;;;;;;17.15;4.85;;;;;;;31.80;37.29;98095.84;4941478;29;20097;-65
2022/04/23 12:01:30;;;;;;;28.60;6.43;;;;;;;31.75;36.08;98091.09;4962049;28;20074;-66
2022/04/23 12:04:13;;;;;;;25.75;5.70;;;;;;;31.66;38.58;98091.44;4971101;28;20050;-68
2022/04/23 12:07:07;;;;;;;21.08;4.43;;;;;;;31.52;39.17;98093.16;4956618;28;20743;-66
2022/04/23 12:09:54;;;;;;;19.50;4.82;;;;;;;31.44;39.98;98085.31;4951955;28;20055;-66
2022/04/23 12:12:43;;;;;;;21.25;5.90;;;;;;;31.36;39.19;98091.59;4935014;29;20047;-64
2022/04/23 12:15:25;;;;;;;26.58;6.88;;;;;;;31.30;40.17;98095.00;4951414;28;20078;-65
2022/04/23 12:18:23;;;;;;;19.17;6.30;;;;;;;31.28;38.37;98094.41;4940981;28;20040;-66
2022/04/23 12:21:12;;;;;;;20.92;6.50;;;;;;;31.24;36.49;98089.63;4936285;29;20059;-65
2022/04/23 12:24:01;;;;;;;24.40;5.63;;;;;;;31.29;35.61;98093.34;4929771;29;20054;-66
2022/04/23 12:26:43;;;;;;;24.60;5.45;;;;;;;31.29;36.92;98090.69;4950661;29;20167;-66
2022/04/23 12:42:01;;;;;;;24.58;6.05;;;;;;;31.07;38.93;98094.38;4949668;28;20055;-66
2022/04/23 12:44:52;;;;;;;24.02;5.93;;;;;;;31.02;37.95;98091.44;4951034;29;20054;-66
2022/04/23 12:47:38;;;;;;;28.45;5.35;;;;;;;30.98;38.49;98095.50;4951534;29;20062;-67
2022/04/23 12:50:27;;;;;;;27.67;5.57;;;;;;;30.91;36.35;98097.25;4950335;29;20416;-66
2022/04/23 12:53:09;;;;;;;23.27;5.45;;;;;;;30.83;38.42;98095.56;4933372;29;20054;-65
2022/04/23 12:55:59;;;;;;;26.90;5.95;;;;;;;30.75;37.35;98101.00;4947991;29;20118;-67
2022/04/23 12:58:54;;;;;;;26.20;6.25;;;;;;;30.70;38.83;98101.56;4938634;28;20055;-67
2022/04/23 13:01:29;;;;;;;15.50;4.93;;;;;;;30.59;41.59;98099.38;4929266;29;20062;-68
2022/04/23 13:04:18;;;;;;;41.83;7.88;;;;;;;30.52;39.07;98106.47;4927431;29;20729;-67
2022/04/23 13:10:27;;;;;;;21.65;6.10;;;;;;;30.45;38.22;98105.53;4874267;29;20067;-68
2022/04/23 13:13:16;;;;;;;26.40;6.45;;;;;;;30.38;39.02;98105.44;4878991;29;20055;-67
2022/04/23 13:15:58;;;;;;;21.05;5.80;;;;;;;30.30;39.14;98113.53;4923920;29;20052;-65
2022/04/23 13:18:47;;;;;;;18.42;6.35;;;;;;;30.25;38.98;98117.75;4247125;29;10000722;-66
2022/04/23 13:21:31;;;;;;;25.77;5.28;;;;;;;30.19;40.00;98111.31;4928238;29;20059;-63
2022/04/23 13:24:20;;;;;;;21.52;5.95;;;;;;;30.13;41.37;98121.88;4912046;29;20056;-67
2022/04/23 13:27:02;;;;;;;19.95;5.65;;;;;;;30.04;41.38;98119.31;4929346;29;20051;-66
2022/04/23 13:29:54;;;;;;;24.50;6.45;;;;;;;29.96;42.18;98121.22;4923184;29;20130;-66
2022/04/23 13:32:38;;;;;;;30.58;5.95;;;;;;;29.84;44.51;98126.13;4926874;29;20050;-67